createdAt,value
2018-01-12T00:02:08.103Z,11.57
2018-01-12T00:04:36.033Z,11.90
2018-01-12T00:07:03.976Z,13.20
2018-01-12T00:09:31.879Z,11.60
2018-01-12T00:12:00.606Z,13.23
2018-01-12T00:14:29.537Z,12.55
2018-01-12T00:16:57.431Z,12.75
2018-01-12T00:19:26.389Z,12.40
2018-01-12T00:21:54.294Z,12.25
2018-01-12T00:24:22.241Z,12.35
2018-01-12T00:26:50.146Z,13.38
2018-01-12T00:29:19.074Z,11.15
2018-01-12T00:31:47.017Z,10.68
2018-01-12T00:34:14.950Z,13.23
2018-01-12T00:36:42.819Z,12.63
2018-01-12T00:39:10.804Z,12.60
2018-01-12T00:41:38.723Z,11.77
2018-01-12T00:44:06.667Z,13.50
2018-01-12T00:46:34.600Z,12.60
2018-01-12T00:49:02.521Z,13.68
2018-01-12T00:51:30.473Z,12.37
2018-01-12T00:53:58.389Z,12.02
2018-01-12T00:56:26.311Z,12.45
2018-01-12T00:58:54.254Z,12.00
2018-01-12T01:01:22.176Z,11.80
2018-01-12T01:03:51.092Z,14.75
2018-01-12T01:06:19.008Z,11.65
2018-01-12T01:08:46.922Z,11.95
2018-01-12T01:11:14.811Z,11.60
2018-01-12T01:13:42.757Z,10.68
2018-01-12T01:16:10.672Z,12.32
2018-01-12T01:18:38.584Z,11.57
2018-01-12T01:21:06.526Z,12.50
2018-01-12T01:23:34.437Z,12.70
2018-01-12T01:26:02.381Z,12.07
2018-01-12T01:28:30.278Z,11.60
2018-01-12T01:30:58.202Z,12.95
2018-01-12T01:33:26.103Z,12.73
2018-01-12T01:35:54.024Z,13.80
2018-01-12T01:38:21.933Z,12.52
2018-01-12T01:40:49.840Z,11.73
2018-01-12T01:43:17.750Z,12.32
2018-01-12T01:45:45.673Z,12.02
2018-01-12T01:48:13.578Z,13.23
2018-01-12T01:50:41.529Z,13.93
2018-01-12T01:53:09.427Z,12.00
2018-01-12T01:55:37.349Z,12.18
2018-01-12T01:58:05.272Z,12.57
2018-01-12T02:00:33.178Z,15.38
2018-01-12T02:03:01.087Z,12.73
2018-01-12T02:05:29.017Z,13.38
2018-01-12T02:07:56.924Z,11.07
2018-01-12T02:10:24.834Z,13.62
2018-01-12T02:12:52.776Z,13.52
2018-01-12T02:15:20.679Z,12.98
2018-01-12T02:17:48.596Z,12.95
2018-01-12T02:20:16.538Z,12.65
2018-01-12T02:22:44.456Z,13.23
2018-01-12T02:25:12.376Z,12.02
2018-01-12T02:27:40.290Z,12.63
2018-01-12T02:30:08.210Z,13.00
2018-01-12T02:32:36.096Z,13.52
2018-01-12T02:35:04.019Z,12.52
2018-01-12T02:37:31.985Z,11.30
2018-01-12T02:39:59.909Z,9.38
2018-01-12T02:42:27.838Z,9.88
2018-01-12T02:44:55.782Z,9.82
2018-01-12T02:47:23.690Z,9.95
2018-01-12T02:49:51.628Z,10.10
2018-01-12T02:52:19.566Z,9.65
2018-01-12T02:54:47.470Z,9.15
2018-01-12T02:57:15.414Z,10.75
2018-01-12T02:59:43.315Z,9.30
2018-01-12T03:02:11.234Z,9.50
2018-01-12T03:04:39.168Z,8.80
2018-01-12T03:07:07.081Z,9.25
2018-01-12T03:09:34.990Z,9.13
2018-01-12T03:12:02.921Z,9.35
2018-01-12T03:14:30.824Z,9.35
2018-01-12T03:16:58.738Z,9.20
2018-01-12T03:19:26.661Z,9.50
2018-01-12T03:21:54.585Z,9.98
2018-01-12T03:24:22.486Z,9.20
2018-01-12T03:26:50.393Z,9.23
2018-01-12T03:29:18.309Z,8.43
2018-01-12T03:31:46.237Z,7.80
2018-01-12T03:34:14.168Z,8.77
2018-01-12T03:36:42.089Z,8.27
2018-01-12T03:39:09.986Z,9.30
2018-01-12T03:41:37.901Z,9.13
2018-01-12T03:44:05.810Z,9.10
2018-01-12T03:46:33.726Z,8.45
2018-01-12T03:49:01.649Z,9.20
2018-01-12T03:51:29.566Z,10.10
2018-01-12T03:53:57.461Z,10.75
2018-01-12T03:56:26.491Z,9.68
2018-01-12T03:58:54.419Z,9.35
2018-01-12T04:01:22.322Z,10.15
2018-01-12T04:03:50.236Z,9.90
2018-01-12T04:06:18.140Z,10.80
2018-01-12T04:08:47.108Z,10.40
2018-01-12T04:11:15.067Z,10.48
2018-01-12T04:13:42.974Z,10.15
2018-01-12T04:16:10.904Z,11.00
2018-01-12T04:18:39.049Z,10.30
2018-01-12T04:21:06.997Z,10.43
2018-01-12T04:23:35.724Z,10.70
2018-01-12T04:26:03.640Z,10.80
2018-01-12T04:28:31.556Z,10.10
2018-01-12T04:30:59.478Z,9.65
2018-01-12T04:33:27.379Z,11.60
2018-01-12T04:35:55.297Z,9.73
2018-01-12T04:38:23.215Z,10.80
2018-01-12T04:40:51.139Z,10.40
2018-01-12T04:43:19.043Z,8.88
2018-01-12T04:45:46.977Z,9.93
2018-01-12T04:48:14.890Z,11.10
2018-01-12T04:50:42.798Z,11.10
2018-01-12T04:53:10.707Z,10.82
2018-01-12T04:55:38.625Z,10.60
2018-01-12T04:58:06.539Z,9.60
2018-01-12T05:00:34.469Z,10.13
2018-01-12T05:03:02.363Z,9.68
2018-01-12T05:05:30.261Z,9.20
2018-01-12T05:07:58.200Z,9.80
2018-01-12T05:10:26.105Z,9.63
2018-01-12T05:12:54.018Z,8.90
2018-01-12T05:15:21.937Z,10.43
2018-01-12T05:17:49.839Z,8.82
2018-01-12T05:20:17.753Z,10.70
2018-01-12T05:22:46.791Z,10.43
2018-01-12T05:25:14.705Z,9.70
2018-01-12T05:27:42.610Z,9.18
2018-01-12T05:30:10.550Z,11.15
2018-01-12T05:32:38.460Z,11.95
2018-01-12T05:35:06.346Z,11.65
2018-01-12T05:37:34.259Z,10.50
2018-01-12T05:40:02.252Z,12.27
2018-01-12T05:42:31.242Z,13.95
2018-01-12T05:44:59.180Z,12.77
2018-01-12T05:47:27.055Z,15.48
2018-01-12T05:49:54.951Z,14.15
2018-01-12T05:52:22.860Z,12.30
2018-01-12T05:54:50.756Z,14.20
2018-01-12T05:57:18.673Z,13.85
2018-01-12T05:59:46.600Z,14.20
2018-01-12T06:02:20.671Z,14.70
2018-01-12T06:04:54.773Z,13.75
2018-01-12T06:07:22.696Z,14.63
2018-01-12T06:09:50.607Z,14.82
2018-01-12T06:12:18.526Z,14.30
2018-01-12T06:14:46.464Z,14.90
2018-01-12T06:17:14.383Z,12.32
2018-01-12T06:19:42.293Z,14.60
2018-01-12T06:22:10.214Z,14.20
2018-01-12T06:24:38.153Z,14.43
2018-01-12T06:27:06.220Z,14.68
2018-01-12T06:29:34.137Z,13.62
2018-01-12T06:32:02.109Z,14.02
2018-01-12T06:34:30.054Z,13.68
2018-01-12T06:36:57.942Z,14.02
2018-01-12T06:39:26.930Z,16.80
2018-01-12T06:41:54.849Z,14.55
2018-01-12T06:44:22.759Z,13.57
2018-01-12T06:46:50.686Z,12.50
2018-01-12T06:49:18.579Z,14.48
2018-01-12T06:51:46.497Z,14.35
2018-01-12T06:54:14.406Z,14.93
2018-01-12T06:56:42.320Z,14.70
2018-01-12T06:59:10.235Z,14.87
2018-01-12T07:01:38.155Z,14.65
2018-01-12T07:04:06.059Z,15.07
2018-01-12T07:06:33.994Z,13.90
2018-01-12T07:09:01.950Z,13.07
2018-01-12T07:11:29.901Z,16.20
2018-01-12T07:13:57.841Z,14.63
2018-01-12T07:16:25.763Z,14.20
2018-01-12T07:18:53.700Z,14.25
2018-01-12T07:21:27.907Z,13.73
2018-01-12T07:23:55.818Z,13.88
2018-01-12T07:26:23.749Z,13.50
2018-01-12T07:28:51.642Z,12.95
2018-01-12T07:31:19.571Z,13.88
2018-01-12T07:33:47.487Z,13.15
2018-01-12T07:36:15.419Z,12.70
2018-01-12T07:38:43.360Z,13.45
2018-01-12T07:41:11.255Z,14.05
2018-01-12T07:43:39.172Z,14.23
2018-01-12T07:46:07.087Z,14.48
2018-01-12T07:48:35.024Z,14.15
2018-01-12T07:51:02.919Z,12.93
2018-01-12T07:53:30.831Z,15.35
2018-01-12T07:55:58.758Z,15.10
2018-01-12T07:58:26.668Z,12.73
2018-01-12T08:01:00.847Z,15.93
2018-01-12T08:03:28.769Z,13.95
2018-01-12T08:05:56.688Z,14.27
2018-01-12T08:08:24.616Z,15.75
2018-01-12T08:10:52.523Z,15.25
2018-01-12T08:13:20.450Z,15.38
2018-01-12T08:15:48.372Z,15.43
2018-01-12T08:18:16.277Z,13.10
2018-01-12T08:20:44.200Z,13.73
2018-01-12T08:23:12.121Z,13.07
2018-01-12T08:25:40.044Z,14.18
2018-01-12T08:28:07.960Z,12.80
2018-01-12T08:30:35.862Z,13.40
2018-01-12T08:33:03.754Z,14.70
2018-01-12T08:35:31.673Z,12.70
2018-01-12T08:37:59.578Z,13.73
2018-01-12T08:40:27.503Z,14.55
2018-01-12T08:42:55.440Z,13.98
2018-01-12T08:45:23.348Z,13.95
2018-01-12T08:47:51.268Z,12.85
2018-01-12T08:50:19.192Z,14.00
2018-01-12T08:52:48.140Z,13.43
2018-01-12T08:55:16.085Z,11.85
2018-01-12T08:57:45.000Z,13.35
2018-01-12T09:00:12.977Z,11.80
2018-01-12T09:02:40.918Z,12.37
2018-01-12T09:05:08.860Z,14.18
2018-01-12T09:07:36.773Z,12.07
2018-01-12T09:10:04.679Z,13.35
2018-01-12T09:12:32.621Z,14.15
2018-01-12T09:15:06.705Z,11.90
2018-01-12T09:17:34.623Z,14.35
2018-01-12T09:20:08.758Z,12.80
2018-01-12T09:22:42.765Z,13.30
2018-01-12T09:25:10.670Z,15.00
2018-01-12T09:27:38.588Z,12.77
2018-01-12T09:30:06.507Z,14.70
2018-01-12T09:32:34.440Z,12.45
2018-01-12T09:35:02.364Z,15.43
2018-01-12T09:37:30.282Z,14.85
2018-01-12T09:40:04.202Z,14.05
2018-01-12T09:42:32.152Z,16.87
2018-01-12T09:45:00.060Z,16.20
2018-01-12T09:47:28.000Z,16.48
2018-01-12T09:49:55.954Z,17.95
2018-01-12T09:52:23.850Z,17.33
2018-01-12T09:54:51.798Z,16.00
2018-01-12T09:57:19.726Z,16.60
2018-01-12T09:59:47.625Z,15.75
2018-01-12T10:02:16.216Z,16.40
2018-01-12T10:04:44.127Z,17.48
2018-01-12T10:07:15.202Z,16.50
2018-01-12T10:09:47.207Z,14.80
2018-01-12T10:12:15.166Z,33.33
2018-01-12T10:14:43.065Z,51.35
2018-01-12T10:17:10.985Z,45.88
2018-01-12T10:19:45.156Z,26.23
2018-01-12T10:22:13.067Z,23.17
2018-01-12T10:24:40.993Z,20.88
2018-01-12T10:27:08.903Z,20.50
2018-01-12T10:29:43.083Z,19.45
2018-01-12T10:32:17.083Z,20.80
2018-01-12T10:34:45.016Z,22.63
2018-01-12T10:37:12.937Z,20.90
2018-01-12T10:39:46.920Z,22.13
2018-01-12T10:42:14.834Z,19.20
2018-01-12T10:44:42.747Z,16.55
2018-01-12T10:47:16.702Z,18.20
2018-01-12T10:49:50.657Z,19.05
2018-01-12T10:52:18.585Z,17.42
2018-01-12T10:54:46.498Z,18.08
2018-01-12T10:57:14.420Z,16.42
2018-01-12T10:59:42.348Z,18.60
2018-01-12T11:02:10.274Z,15.68
2018-01-12T11:04:38.211Z,15.20
2018-01-12T11:07:06.161Z,18.00
2018-01-12T11:09:34.092Z,17.80
2018-01-12T11:12:02.049Z,15.80
2018-01-12T11:14:29.982Z,17.90
2018-01-12T11:16:57.898Z,16.48
2018-01-12T11:19:25.815Z,17.55
2018-01-12T11:21:53.808Z,16.90
2018-01-12T11:24:21.748Z,17.00
2018-01-12T11:26:49.661Z,17.05
2018-01-12T11:29:17.592Z,17.37
2018-01-12T11:31:45.583Z,18.15
2018-01-12T11:34:13.512Z,19.70
2018-01-12T11:36:41.437Z,21.08
2018-01-12T11:39:09.374Z,19.67
2018-01-12T11:41:37.334Z,18.27
2018-01-12T11:44:05.264Z,24.08
2018-01-12T11:46:33.178Z,21.75
2018-01-12T11:49:01.099Z,19.77
2018-01-12T11:51:29.010Z,22.42
2018-01-12T11:53:57.022Z,24.05
2018-01-12T11:56:24.922Z,23.05
2018-01-12T11:58:52.864Z,24.35
2018-01-12T12:01:21.862Z,27.52
2018-01-12T12:03:49.788Z,23.48
2018-01-12T12:06:17.767Z,25.55
2018-01-12T12:08:45.701Z,29.87
2018-01-12T12:11:13.616Z,26.07
2018-01-12T12:13:41.535Z,21.87
2018-01-12T12:16:09.458Z,19.00
2018-01-12T12:18:37.468Z,17.67
2018-01-12T12:21:05.411Z,15.85
2018-01-12T12:23:33.626Z,14.98
2018-01-12T12:26:02.141Z,17.40
2018-01-12T12:28:31.801Z,16.85
2018-01-12T12:31:00.429Z,17.45
2018-01-12T12:33:28.808Z,17.55
2018-01-12T12:35:58.021Z,18.90
2018-01-12T12:38:26.547Z,15.97
2018-01-12T12:40:54.647Z,19.83
2018-01-12T12:43:22.579Z,19.30
2018-01-12T12:45:50.490Z,18.53
2018-01-12T12:48:18.398Z,18.42
2018-01-12T12:50:46.296Z,17.52
2018-01-12T12:53:14.234Z,18.07
2018-01-12T12:55:42.148Z,16.70
2018-01-12T12:58:10.042Z,16.23
2018-01-12T13:00:37.970Z,18.60
2018-01-12T13:03:05.883Z,17.70
2018-01-12T13:05:33.797Z,18.20
2018-01-12T13:08:01.718Z,17.40
2018-01-12T13:10:29.633Z,19.17
2018-01-12T13:12:57.573Z,18.17
2018-01-12T13:15:26.530Z,21.40
2018-01-12T13:17:54.480Z,23.40
2018-01-12T13:20:22.425Z,23.70
2018-01-12T13:22:50.352Z,20.83
2018-01-12T13:25:18.279Z,15.82
2018-01-12T13:27:46.209Z,14.70
2018-01-12T13:30:14.165Z,15.40
2018-01-12T13:32:42.076Z,13.93
2018-01-12T13:35:10.004Z,15.70
2018-01-12T13:37:37.942Z,15.60
2018-01-12T13:40:05.835Z,14.20
2018-01-12T13:42:33.788Z,15.68
2018-01-12T13:45:01.729Z,15.47
2018-01-12T13:47:29.631Z,14.20
2018-01-12T13:49:57.579Z,14.68
2018-01-12T13:52:25.550Z,13.57
2018-01-12T13:54:53.487Z,15.70
2018-01-12T13:57:21.403Z,16.73
2018-01-12T13:59:49.356Z,17.85
2018-01-12T14:02:17.280Z,17.45
2018-01-12T14:04:46.198Z,17.48
2018-01-12T14:07:14.137Z,17.35
2018-01-12T14:09:42.059Z,18.12
2018-01-12T14:12:09.982Z,17.02
2018-01-12T14:14:37.890Z,16.95
2018-01-12T14:17:05.818Z,18.27
2018-01-12T14:19:33.755Z,16.62
2018-01-12T14:22:01.681Z,17.27
2018-01-12T14:24:29.597Z,15.47
2018-01-12T14:26:57.548Z,18.70
2018-01-12T14:29:25.470Z,15.77
2018-01-12T14:31:53.379Z,15.30
2018-01-12T14:34:21.299Z,17.05
2018-01-12T14:36:49.222Z,16.30
2018-01-12T14:39:17.133Z,17.05
2018-01-12T14:41:45.060Z,17.15
2018-01-12T14:44:13.016Z,18.45
2018-01-12T14:46:40.928Z,18.35
2018-01-12T14:49:08.848Z,17.57
2018-01-12T14:51:36.776Z,19.33
2018-01-12T14:54:04.717Z,17.33
2018-01-12T14:56:32.655Z,18.48
2018-01-12T14:59:00.612Z,18.60
2018-01-12T15:01:28.572Z,15.73
2018-01-12T15:03:57.539Z,18.60
2018-01-12T15:06:25.460Z,18.67
2018-01-12T15:08:53.384Z,18.20
2018-01-12T15:11:21.287Z,19.55
2018-01-12T15:13:49.231Z,18.17
2018-01-12T15:16:17.147Z,20.30
2018-01-12T15:18:45.046Z,19.10
2018-01-12T15:21:12.992Z,21.23
2018-01-12T15:23:40.915Z,19.90
2018-01-12T15:26:08.845Z,21.85
2018-01-12T15:28:36.786Z,19.80
2018-01-12T15:31:04.714Z,19.52
2018-01-12T15:33:32.619Z,20.77
2018-01-12T15:36:00.580Z,20.30
2018-01-12T15:38:28.480Z,20.00
2018-01-12T15:40:56.396Z,19.15
2018-01-12T15:43:24.373Z,18.52
2018-01-12T15:45:52.310Z,18.52
2018-01-12T15:48:20.242Z,19.23
2018-01-12T15:50:48.180Z,18.42
2018-01-12T15:53:17.199Z,19.02
2018-01-12T15:55:45.187Z,20.95
2018-01-12T15:58:13.114Z,19.50
2018-01-12T16:00:41.038Z,18.55
2018-01-12T16:03:08.946Z,17.52
2018-01-12T16:05:36.921Z,16.92
2018-01-12T16:08:04.855Z,17.30
2018-01-12T16:10:32.772Z,17.52
2018-01-12T16:13:00.708Z,16.02
2018-01-12T16:15:28.652Z,17.58
2018-01-12T16:17:56.538Z,14.87
2018-01-12T16:20:24.458Z,15.63
2018-01-12T16:22:52.381Z,14.95
2018-01-12T16:25:20.310Z,16.35
2018-01-12T16:27:48.219Z,17.65
2018-01-12T16:30:16.168Z,17.02
2018-01-12T16:32:44.071Z,16.87
2018-01-12T16:35:12.005Z,16.62
2018-01-12T16:37:39.932Z,14.98
2018-01-12T16:40:07.846Z,16.58
2018-01-12T16:42:36.790Z,15.45
2018-01-12T16:45:04.699Z,16.92
2018-01-12T16:47:32.603Z,16.73
2018-01-12T16:50:00.523Z,17.08
2018-01-12T16:52:28.414Z,16.58
2018-01-12T16:54:56.353Z,17.92
2018-01-12T16:57:24.263Z,17.25
2018-01-12T16:59:52.183Z,17.37
2018-01-12T17:02:20.078Z,16.42
2018-01-12T17:04:47.990Z,15.90
2018-01-12T17:07:16.924Z,17.23
2018-01-12T17:09:44.900Z,16.02
2018-01-12T17:12:12.828Z,15.50
2018-01-12T17:14:40.736Z,17.15
2018-01-12T17:17:08.642Z,16.30
2018-01-12T17:19:36.565Z,17.17
2018-01-12T17:22:04.501Z,17.37
2018-01-12T17:24:32.411Z,19.30
2018-01-12T17:27:00.336Z,16.17
2018-01-12T17:29:28.272Z,16.08
2018-01-12T17:31:56.166Z,18.30
2018-01-12T17:34:24.086Z,17.55
2018-01-12T17:36:52.007Z,18.70
2018-01-12T17:39:19.908Z,19.33
2018-01-12T17:41:47.902Z,17.35
2018-01-12T17:44:15.854Z,17.95
2018-01-12T17:46:43.766Z,16.35
2018-01-12T17:49:11.709Z,17.12
2018-01-12T17:51:39.651Z,17.92
2018-01-12T17:54:07.568Z,17.98
2018-01-12T17:56:35.493Z,16.42
2018-01-12T17:59:03.410Z,17.30
2018-01-12T18:01:31.323Z,16.33
2018-01-12T18:03:59.253Z,17.45
2018-01-12T18:06:27.160Z,15.65
2018-01-12T18:08:55.073Z,16.70
2018-01-12T18:11:23.003Z,15.75
2018-01-12T18:13:50.940Z,17.60
2018-01-12T18:16:18.868Z,17.77
2018-01-12T18:18:46.794Z,17.52
2018-01-12T18:21:14.732Z,18.55
2018-01-12T18:23:42.662Z,17.73
2018-01-12T18:26:10.576Z,18.15
2018-01-12T18:28:38.492Z,18.33
2018-01-12T18:31:06.426Z,18.77
2018-01-12T18:33:34.334Z,18.25
2018-01-12T18:36:02.276Z,19.17
2018-01-12T18:38:30.186Z,21.27
2018-01-12T18:40:58.078Z,20.50
2018-01-12T18:43:25.999Z,19.37
2018-01-12T18:45:53.924Z,19.05
2018-01-12T18:48:21.824Z,19.60
2018-01-12T18:50:49.743Z,20.55
2018-01-12T18:53:17.655Z,19.95
2018-01-12T18:55:46.655Z,20.67
2018-01-12T18:58:14.582Z,20.20
2018-01-12T19:00:42.500Z,21.15
2018-01-12T19:03:10.410Z,20.45
2018-01-12T19:05:38.361Z,21.33
2018-01-12T19:08:06.289Z,21.17
2018-01-12T19:10:34.183Z,20.90
2018-01-12T19:13:02.149Z,23.67
2018-01-12T19:15:30.065Z,19.40
2018-01-12T19:17:57.972Z,20.42
2018-01-12T19:20:25.972Z,19.27
2018-01-12T19:22:53.908Z,20.35
2018-01-12T19:25:21.823Z,22.33
2018-01-12T19:27:49.746Z,22.30
2018-01-12T19:30:18.773Z,19.80
2018-01-12T19:32:46.692Z,21.65
2018-01-12T19:35:14.644Z,21.30
2018-01-12T19:37:42.581Z,20.37
2018-01-12T19:40:10.502Z,20.35
2018-01-12T19:42:38.422Z,18.77
2018-01-12T19:45:06.344Z,20.15
2018-01-12T19:47:35.284Z,20.37
2018-01-12T19:50:03.198Z,19.45
2018-01-12T19:52:31.112Z,19.15
2018-01-12T19:54:59.042Z,21.60
2018-01-12T19:57:26.976Z,20.08
2018-01-12T19:59:54.912Z,19.65
2018-01-12T20:02:23.246Z,19.40
2018-01-12T20:04:51.389Z,18.73
2018-01-12T20:07:20.452Z,22.48
2018-01-12T20:09:48.616Z,21.27
2018-01-12T20:12:16.783Z,21.52
2018-01-12T20:14:47.710Z,21.87
2018-01-12T20:17:15.636Z,18.40
2018-01-12T20:19:43.569Z,17.95
2018-01-12T20:22:11.500Z,21.70
2018-01-12T20:24:39.408Z,21.30
2018-01-12T20:27:07.335Z,19.52
2018-01-12T20:29:35.238Z,20.98
2018-01-12T20:32:03.178Z,21.45
2018-01-12T20:34:31.097Z,20.83
2018-01-12T20:36:59.026Z,21.75
2018-01-12T20:39:26.961Z,21.67
2018-01-12T20:41:54.878Z,19.37
2018-01-12T20:44:22.814Z,18.75
2018-01-12T20:46:50.735Z,18.80
2018-01-12T20:49:18.673Z,17.45
2018-01-12T20:51:46.594Z,19.00
2018-01-12T20:54:14.506Z,16.58
2018-01-12T20:56:42.426Z,17.25
2018-01-12T20:59:10.323Z,17.27
2018-01-12T21:01:38.330Z,14.98
2018-01-12T21:04:06.243Z,17.37
2018-01-12T21:06:34.172Z,19.95
2018-01-12T21:09:02.148Z,17.50
2018-01-12T21:11:30.054Z,17.70
2018-01-12T21:13:57.956Z,15.77
2018-01-12T21:16:25.898Z,14.85
2018-01-12T21:18:53.812Z,16.42
2018-01-12T21:21:21.735Z,15.10
2018-01-12T21:23:49.657Z,15.65
2018-01-12T21:26:17.564Z,17.42
2018-01-12T21:28:45.500Z,17.12
2018-01-12T21:31:13.428Z,16.70
2018-01-12T21:33:41.335Z,17.05
2018-01-12T21:36:09.272Z,18.27
2018-01-12T21:38:37.180Z,17.00
2018-01-12T21:41:05.104Z,15.75
2018-01-12T21:43:33.011Z,16.42
2018-01-12T21:46:00.973Z,15.45
2018-01-12T21:48:28.908Z,16.45
2018-01-12T21:50:56.826Z,18.02
2018-01-12T21:53:24.775Z,16.50
2018-01-12T21:55:52.675Z,16.77
2018-01-12T21:58:20.582Z,14.65
2018-01-12T22:00:48.557Z,15.05
2018-01-12T22:03:16.480Z,15.70
2018-01-12T22:05:44.444Z,16.87
2018-01-12T22:08:12.379Z,15.98
2018-01-12T22:10:40.395Z,16.20
2018-01-12T22:13:08.372Z,15.15
2018-01-12T22:15:36.334Z,13.95
2018-01-12T22:18:04.261Z,15.75
2018-01-12T22:20:32.159Z,14.48
2018-01-12T22:23:00.082Z,16.58
2018-01-12T22:25:27.991Z,14.60
2018-01-12T22:27:55.922Z,14.85
2018-01-12T22:30:23.876Z,15.02
2018-01-12T22:32:51.842Z,15.38
2018-01-12T22:35:19.781Z,15.52
2018-01-12T22:37:47.718Z,15.25
2018-01-12T22:40:15.615Z,15.95
2018-01-12T22:42:43.577Z,16.90
2018-01-12T22:45:11.490Z,16.02
2018-01-12T22:47:39.495Z,17.85
2018-01-12T22:50:07.429Z,17.42
2018-01-12T22:52:35.349Z,13.62
2018-01-12T22:55:03.250Z,16.62
2018-01-12T22:57:31.173Z,15.65
2018-01-12T22:59:59.094Z,15.77
2018-01-12T23:02:27.113Z,16.77
2018-01-12T23:04:55.059Z,18.20
2018-01-12T23:07:23.023Z,17.08
2018-01-12T23:09:50.947Z,18.05
2018-01-12T23:12:18.864Z,19.85
2018-01-12T23:14:46.860Z,17.23
2018-01-12T23:17:14.815Z,18.73
2018-01-12T23:19:42.733Z,17.20
2018-01-12T23:22:10.684Z,16.73
2018-01-12T23:24:38.609Z,19.05
2018-01-12T23:27:06.553Z,17.67
2018-01-12T23:29:34.577Z,16.60
2018-01-12T23:32:02.482Z,18.05
2018-01-12T23:34:30.391Z,17.70
2018-01-12T23:36:58.322Z,19.15
2018-01-12T23:39:26.260Z,17.33
2018-01-12T23:41:54.181Z,20.08
2018-01-12T23:44:23.224Z,18.58
2018-01-12T23:46:51.118Z,19.30
2018-01-12T23:49:19.064Z,18.45
2018-01-12T23:51:46.966Z,16.98
2018-01-12T23:54:14.896Z,17.95
2018-01-12T23:56:42.813Z,17.40
2018-01-12T23:59:10.736Z,18.15
